RYR3WR EPKK-EDDS
Flight info
| Callsign | RYR3WR |
|---|---|
| Flight time | 1h 11m |
| Altitude | 30000 |
| Route | ADADO M992 UTEVO/N0426F340 DCT OKG N869 DKB Z818 GEBNO T726 NOSBU |
| Aircraft | B738/M-SDE2E3FGHIRWXY/LB1 |
Departure
| Time | 2026-05-07 14:48 |
|---|---|
| Airport | Kraków John Paul II International Airport (EPKK) |
Arrival
| Time | 2026-05-07 15:59 |
|---|---|
| Airport | Stuttgart Airport (EDDS) |
| Time | Latitude | Longitude | Altitude | Speed | Heading |
|---|---|---|---|---|---|
| 2026-05-07 14:32 | 50.07537 | 19.80524 | 789 ft | 0 kts | 107° |
| 2026-05-07 14:40 | 50.07541 | 19.80498 | 789 ft | 3 kts | 100° |
| 2026-05-07 14:40 | 50.07543 | 19.80467 | 789 ft | 3 kts | 88° |
| 2026-05-07 14:40 | 50.07541 | 19.80436 | 789 ft | 3 kts | 70° |
| 2026-05-07 14:40 | 50.07532 | 19.80411 | 789 ft | 3 kts | 38° |
| 2026-05-07 14:41 | 50.07522 | 19.80402 | 789 ft | 0 kts | 17° |
| 2026-05-07 14:44 | 50.07523 | 19.80402 | 789 ft | 0 kts | 17° |
| 2026-05-07 14:44 | 50.07536 | 19.80409 | 789 ft | 5 kts | 18° |
| 2026-05-07 14:44 | 50.07573 | 19.80424 | 789 ft | 6 kts | 6° |
| 2026-05-07 14:45 | 50.07614 | 19.80416 | 789 ft | 7 kts | 349° |
| 2026-05-07 14:45 | 50.07667 | 19.80398 | 789 ft | 9 kts | 347° |
| 2026-05-07 14:45 | 50.07726 | 19.80378 | 789 ft | 9 kts | 347° |
| 2026-05-07 14:45 | 50.07785 | 19.80357 | 789 ft | 8 kts | 347° |
| 2026-05-07 14:46 | 50.07840 | 19.80338 | 789 ft | 8 kts | 347° |
| 2026-05-07 14:46 | 50.07894 | 19.80319 | 789 ft | 8 kts | 347° |
| 2026-05-07 14:46 | 50.07946 | 19.80301 | 789 ft | 8 kts | 347° |
| 2026-05-07 14:46 | 50.07998 | 19.80283 | 788 ft | 8 kts | 347° |
| 2026-05-07 14:47 | 50.08016 | 19.80217 | 789 ft | 7 kts | 260° |
| 2026-05-07 14:47 | 50.08004 | 19.80130 | 789 ft | 14 kts | 258° |
| 2026-05-07 14:47 | 50.07926 | 19.79571 | 789 ft | 92 kts | 258° |
| 2026-05-07 14:47 | 50.07733 | 19.78243 | 805 ft | 156 kts | 254° |
| 2026-05-07 14:48 | 50.07487 | 19.76503 | 1425 ft | 170 kts | 257° |
| 2026-05-07 14:48 | 50.07235 | 19.74643 | 2296 ft | 178 kts | 259° |
| 2026-05-07 14:48 | 50.07006 | 19.72771 | 3206 ft | 179 kts | 259° |
| 2026-05-07 14:48 | 50.06792 | 19.70796 | 3858 ft | 192 kts | 259° |
| 2026-05-07 14:49 | 50.06545 | 19.68675 | 4271 ft | 207 kts | 258° |
| 2026-05-07 14:49 | 50.06240 | 19.66370 | 4522 ft | 231 kts | 258° |
| 2026-05-07 14:49 | 50.05894 | 19.63761 | 4761 ft | 260 kts | 258° |
| 2026-05-07 14:49 | 50.05529 | 19.60979 | 5522 ft | 266 kts | 258° |
| 2026-05-07 14:50 | 50.05195 | 19.58127 | 6465 ft | 265 kts | 258° |
| 2026-05-07 14:50 | 50.04742 | 19.55375 | 7518 ft | 263 kts | 253° |
| 2026-05-07 14:50 | 50.04240 | 19.52623 | 8384 ft | 267 kts | 254° |
| 2026-05-07 14:50 | 50.03775 | 19.49795 | 9211 ft | 271 kts | 255° |
| 2026-05-07 14:51 | 50.03341 | 19.46932 | 10014 ft | 274 kts | 256° |
| 2026-05-07 14:51 | 50.02907 | 19.43973 | 10385 ft | 292 kts | 256° |
| 2026-05-07 14:51 | 50.02604 | 19.40723 | 10574 ft | 316 kts | 270° |
| 2026-05-07 14:51 | 50.02877 | 19.37263 | 11077 ft | 327 kts | 276° |
| 2026-05-07 14:52 | 50.03249 | 19.33740 | 11744 ft | 332 kts | 277° |
| 2026-05-07 14:52 | 50.03633 | 19.30191 | 12520 ft | 334 kts | 277° |
| 2026-05-07 14:52 | 50.04016 | 19.26594 | 13241 ft | 339 kts | 276° |
| 2026-05-07 14:52 | 50.04396 | 19.22950 | 13958 ft | 343 kts | 276° |
| 2026-05-07 14:53 | 50.04772 | 19.19258 | 14603 ft | 347 kts | 276° |
| 2026-05-07 14:53 | 50.05146 | 19.15544 | 14898 ft | 349 kts | 275° |
| 2026-05-07 14:53 | 50.05517 | 19.11809 | 14929 ft | 350 kts | 275° |
| 2026-05-07 14:53 | 50.05888 | 19.08064 | 14933 ft | 350 kts | 275° |
| 2026-05-07 14:54 | 50.06132 | 19.05586 | 14939 ft | 350 kts | 275° |
| 2026-05-07 14:54 | 50.06500 | 19.01832 | 14942 ft | 350 kts | 275° |
| 2026-05-07 14:54 | 50.06865 | 18.98091 | 14942 ft | 350 kts | 275° |
| 2026-05-07 14:54 | 50.07230 | 18.94343 | 14943 ft | 350 kts | 275° |
| 2026-05-07 14:55 | 50.07710 | 18.89384 | 14927 ft | 350 kts | 275° |
| 2026-05-07 14:55 | 50.08072 | 18.85641 | 14937 ft | 349 kts | 275° |
| 2026-05-07 14:55 | 50.08315 | 18.83118 | 14935 ft | 349 kts | 275° |
| 2026-05-07 14:55 | 50.08674 | 18.79372 | 14941 ft | 350 kts | 275° |
| 2026-05-07 14:56 | 50.09089 | 18.75639 | 14938 ft | 351 kts | 278° |
| 2026-05-07 14:56 | 50.09626 | 18.71939 | 14936 ft | 351 kts | 280° |
| 2026-05-07 14:56 | 50.10198 | 18.68237 | 14959 ft | 354 kts | 280° |
| 2026-05-07 14:56 | 50.10776 | 18.64474 | 15520 ft | 358 kts | 280° |
| 2026-05-07 14:57 | 50.11342 | 18.60718 | 16424 ft | 356 kts | 279° |
| 2026-05-07 14:57 | 50.11900 | 18.56950 | 17239 ft | 358 kts | 279° |
| 2026-05-07 14:57 | 50.12455 | 18.53145 | 17980 ft | 362 kts | 279° |
| 2026-05-07 14:57 | 50.13013 | 18.49299 | 18665 ft | 365 kts | 278° |
| 2026-05-07 14:58 | 50.13521 | 18.45421 | 19310 ft | 367 kts | 276° |
| 2026-05-07 14:58 | 50.13954 | 18.41482 | 19945 ft | 370 kts | 274° |
| 2026-05-07 14:58 | 50.14360 | 18.37561 | 20568 ft | 373 kts | 274° |
| 2026-05-07 14:58 | 50.14771 | 18.33553 | 21168 ft | 376 kts | 273° |
| 2026-05-07 14:59 | 50.15073 | 18.29495 | 21730 ft | 376 kts | 267° |
| 2026-05-07 14:59 | 50.15151 | 18.25408 | 22298 ft | 379 kts | 265° |
| 2026-05-07 14:59 | 50.15172 | 18.21281 | 22862 ft | 383 kts | 264° |
| 2026-05-07 14:59 | 50.15178 | 18.17112 | 23411 ft | 387 kts | 263° |
| 2026-05-07 15:00 | 50.15187 | 18.12891 | 23870 ft | 391 kts | 264° |
| 2026-05-07 15:00 | 50.15204 | 18.08633 | 24359 ft | 394 kts | 264° |
| 2026-05-07 15:00 | 50.15228 | 18.04369 | 24861 ft | 396 kts | 264° |
| 2026-05-07 15:00 | 50.15257 | 18.00061 | 25355 ft | 398 kts | 264° |
| 2026-05-07 15:01 | 50.15288 | 17.95740 | 25831 ft | 400 kts | 264° |
| 2026-05-07 15:01 | 50.15320 | 17.91384 | 26291 ft | 402 kts | 264° |
| 2026-05-07 15:01 | 50.15352 | 17.87017 | 26748 ft | 405 kts | 264° |
| 2026-05-07 15:01 | 50.15383 | 17.82609 | 27172 ft | 408 kts | 264° |
| 2026-05-07 15:02 | 50.15413 | 17.78178 | 27592 ft | 410 kts | 264° |
| 2026-05-07 15:02 | 50.15441 | 17.73706 | 28011 ft | 413 kts | 264° |
| 2026-05-07 15:02 | 50.15468 | 17.69216 | 28426 ft | 415 kts | 264° |
| 2026-05-07 15:02 | 50.15493 | 17.64698 | 28835 ft | 418 kts | 263° |
| 2026-05-07 15:03 | 50.15516 | 17.60160 | 29230 ft | 421 kts | 263° |
| 2026-05-07 15:03 | 50.15538 | 17.55588 | 29586 ft | 423 kts | 263° |
| 2026-05-07 15:03 | 50.15558 | 17.50983 | 29936 ft | 426 kts | 263° |
| 2026-05-07 15:03 | 50.15577 | 17.46350 | 30252 ft | 428 kts | 263° |
| 2026-05-07 15:04 | 50.15594 | 17.41696 | 30542 ft | 429 kts | 263° |
| 2026-05-07 15:04 | 50.15610 | 17.37047 | 30875 ft | 430 kts | 263° |
| 2026-05-07 15:04 | 50.15623 | 17.32374 | 31179 ft | 431 kts | 263° |
| 2026-05-07 15:04 | 50.15636 | 17.27702 | 31563 ft | 431 kts | 263° |
| 2026-05-07 15:05 | 50.15647 | 17.23042 | 31967 ft | 428 kts | 263° |
| 2026-05-07 15:05 | 50.15656 | 17.18402 | 32377 ft | 427 kts | 263° |
| 2026-05-07 15:05 | 50.15662 | 17.13787 | 32771 ft | 425 kts | 263° |
| 2026-05-07 15:05 | 50.15666 | 17.09181 | 33133 ft | 425 kts | 263° |
| 2026-05-07 15:06 | 50.15667 | 17.04580 | 33522 ft | 424 kts | 263° |
| 2026-05-07 15:06 | 50.15667 | 16.99993 | 33919 ft | 423 kts | 263° |
| 2026-05-07 15:06 | 50.15665 | 16.95409 | 34199 ft | 423 kts | 263° |
| 2026-05-07 15:06 | 50.15660 | 16.90824 | 34408 ft | 424 kts | 263° |
| 2026-05-07 15:07 | 50.15654 | 16.86216 | 34622 ft | 426 kts | 263° |
| 2026-05-07 15:07 | 50.15645 | 16.81594 | 34880 ft | 426 kts | 264° |
| 2026-05-07 15:07 | 50.15621 | 16.72218 | 34859 ft | 437 kts | 264° |
| 2026-05-07 15:08 | 50.15593 | 16.62708 | 34854 ft | 440 kts | 264° |
| 2026-05-07 15:08 | 50.15558 | 16.53139 | 34843 ft | 442 kts | 264° |
| 2026-05-07 15:09 | 50.15515 | 16.43603 | 34849 ft | 443 kts | 264° |
| 2026-05-07 15:09 | 50.15464 | 16.33988 | 34845 ft | 444 kts | 264° |
| 2026-05-07 15:10 | 50.15404 | 16.24352 | 34852 ft | 445 kts | 264° |
| 2026-05-07 15:10 | 50.15335 | 16.14710 | 34843 ft | 445 kts | 264° |
| 2026-05-07 15:11 | 50.15259 | 16.05069 | 34846 ft | 445 kts | 264° |
| 2026-05-07 15:11 | 50.15174 | 15.95425 | 34847 ft | 444 kts | 264° |
| 2026-05-07 15:12 | 50.15082 | 15.85793 | 34846 ft | 444 kts | 264° |
| 2026-05-07 15:12 | 50.14981 | 15.76148 | 34841 ft | 445 kts | 264° |
| 2026-05-07 15:13 | 50.14873 | 15.66568 | 34846 ft | 445 kts | 264° |
| 2026-05-07 15:13 | 50.14756 | 15.56917 | 34846 ft | 445 kts | 264° |
| 2026-05-07 15:14 | 50.14632 | 15.47260 | 34852 ft | 446 kts | 264° |
| 2026-05-07 15:14 | 50.14499 | 15.37590 | 34858 ft | 446 kts | 264° |
| 2026-05-07 15:15 | 50.14358 | 15.27926 | 34853 ft | 447 kts | 264° |
| 2026-05-07 15:15 | 50.14209 | 15.18234 | 34861 ft | 447 kts | 265° |
| 2026-05-07 15:16 | 50.14051 | 15.08545 | 34867 ft | 447 kts | 265° |
| 2026-05-07 15:16 | 50.13886 | 14.98853 | 34866 ft | 448 kts | 265° |
| 2026-05-07 15:17 | 50.13712 | 14.89153 | 34871 ft | 448 kts | 265° |
| 2026-05-07 15:17 | 50.13530 | 14.79450 | 34874 ft | 448 kts | 265° |
| 2026-05-07 15:18 | 50.13340 | 14.69739 | 34878 ft | 449 kts | 265° |
| 2026-05-07 15:18 | 50.13141 | 14.60003 | 34870 ft | 450 kts | 265° |
| 2026-05-07 15:19 | 50.12934 | 14.50259 | 34868 ft | 450 kts | 265° |
| 2026-05-07 15:19 | 50.12718 | 14.40485 | 34878 ft | 451 kts | 265° |
| 2026-05-07 15:20 | 50.12494 | 14.30723 | 34875 ft | 451 kts | 265° |
| 2026-05-07 15:20 | 50.12262 | 14.20944 | 34870 ft | 451 kts | 265° |
| 2026-05-07 15:21 | 50.12024 | 14.11227 | 34857 ft | 444 kts | 265° |
| 2026-05-07 15:21 | 50.11780 | 14.01650 | 34966 ft | 449 kts | 265° |
| 2026-05-07 15:22 | 50.11519 | 13.91775 | 34977 ft | 454 kts | 265° |
| 2026-05-07 15:22 | 50.11255 | 13.82037 | 34964 ft | 452 kts | 265° |
| 2026-05-07 15:23 | 50.10983 | 13.72281 | 34979 ft | 450 kts | 265° |
| 2026-05-07 15:23 | 50.10703 | 13.62556 | 34977 ft | 449 kts | 265° |
| 2026-05-07 15:24 | 50.10416 | 13.52855 | 34982 ft | 448 kts | 265° |
| 2026-05-07 15:24 | 50.10120 | 13.43162 | 34985 ft | 448 kts | 265° |
| 2026-05-07 15:25 | 50.09817 | 13.33468 | 34989 ft | 448 kts | 265° |
| 2026-05-07 15:25 | 50.09505 | 13.23767 | 34993 ft | 449 kts | 265° |
| 2026-05-07 15:26 | 50.09184 | 13.14037 | 34993 ft | 451 kts | 265° |
| 2026-05-07 15:26 | 50.08853 | 13.04279 | 35002 ft | 452 kts | 265° |
| 2026-05-07 15:27 | 50.08514 | 12.94495 | 34991 ft | 453 kts | 265° |
| 2026-05-07 15:27 | 50.08167 | 12.84697 | 35001 ft | 454 kts | 265° |
| 2026-05-07 15:28 | 50.07810 | 12.74901 | 34986 ft | 454 kts | 265° |
| 2026-05-07 15:28 | 50.07446 | 12.65095 | 35002 ft | 453 kts | 265° |
| 2026-05-07 15:29 | 50.07075 | 12.55323 | 35003 ft | 453 kts | 265° |
| 2026-05-07 15:29 | 50.06695 | 12.45530 | 35002 ft | 453 kts | 265° |
| 2026-05-07 15:30 | 50.05468 | 12.35993 | 35005 ft | 451 kts | 249° |
| 2026-05-07 15:30 | 50.03147 | 12.26933 | 35012 ft | 451 kts | 248° |
| 2026-05-07 15:31 | 50.00814 | 12.17879 | 35012 ft | 451 kts | 248° |
| 2026-05-07 15:31 | 49.98541 | 12.08890 | 34994 ft | 436 kts | 248° |
| 2026-05-07 15:32 | 49.97455 | 12.04580 | 34996 ft | 423 kts | 248° |
| 2026-05-07 15:32 | 49.96385 | 12.00340 | 35004 ft | 421 kts | 248° |
| 2026-05-07 15:32 | 49.94260 | 11.91955 | 35013 ft | 420 kts | 249° |
| 2026-05-07 15:33 | 49.93195 | 11.87693 | 34688 ft | 426 kts | 249° |
| 2026-05-07 15:33 | 49.92122 | 11.83361 | 34369 ft | 424 kts | 249° |
| 2026-05-07 15:33 | 49.91080 | 11.79151 | 33973 ft | 422 kts | 249° |
| 2026-05-07 15:33 | 49.90028 | 11.74915 | 33539 ft | 421 kts | 249° |
| 2026-05-07 15:34 | 49.88974 | 11.70692 | 33269 ft | 418 kts | 249° |
| 2026-05-07 15:34 | 49.87928 | 11.66499 | 32956 ft | 416 kts | 250° |
| 2026-05-07 15:34 | 49.86934 | 11.62305 | 32530 ft | 415 kts | 251° |
| 2026-05-07 15:34 | 49.85956 | 11.58095 | 32141 ft | 414 kts | 251° |
| 2026-05-07 15:35 | 49.84976 | 11.53889 | 31737 ft | 418 kts | 251° |
| 2026-05-07 15:35 | 49.83900 | 11.49666 | 31291 ft | 424 kts | 249° |
| 2026-05-07 15:35 | 49.82745 | 11.45446 | 30885 ft | 427 kts | 248° |
| 2026-05-07 15:35 | 49.81580 | 11.41189 | 30471 ft | 430 kts | 248° |
| 2026-05-07 15:36 | 49.80429 | 11.36901 | 30030 ft | 432 kts | 249° |
| 2026-05-07 15:36 | 49.79346 | 11.32557 | 29497 ft | 430 kts | 251° |
| 2026-05-07 15:36 | 49.78302 | 11.28257 | 29067 ft | 424 kts | 251° |
| 2026-05-07 15:36 | 49.77130 | 11.24081 | 28637 ft | 424 kts | 243° |
| 2026-05-07 15:37 | 49.75528 | 11.20230 | 28217 ft | 428 kts | 233° |
| 2026-05-07 15:37 | 49.73525 | 11.16817 | 27805 ft | 429 kts | 227° |
| 2026-05-07 15:37 | 49.71430 | 11.13566 | 27344 ft | 423 kts | 227° |
| 2026-05-07 15:37 | 49.69378 | 11.10358 | 26912 ft | 417 kts | 227° |
| 2026-05-07 15:38 | 49.67368 | 11.07158 | 26489 ft | 413 kts | 228° |
| 2026-05-07 15:38 | 49.65384 | 11.03971 | 26076 ft | 412 kts | 227° |
| 2026-05-07 15:38 | 49.63385 | 11.00789 | 25664 ft | 413 kts | 227° |
| 2026-05-07 15:38 | 49.61383 | 10.97623 | 25233 ft | 413 kts | 227° |
| 2026-05-07 15:39 | 49.59377 | 10.94458 | 24813 ft | 412 kts | 227° |
| 2026-05-07 15:39 | 49.57413 | 10.91363 | 24382 ft | 406 kts | 227° |
| 2026-05-07 15:39 | 49.55454 | 10.88275 | 23969 ft | 400 kts | 227° |
| 2026-05-07 15:39 | 49.53523 | 10.85233 | 23543 ft | 395 kts | 227° |
| 2026-05-07 15:40 | 49.51612 | 10.82226 | 23060 ft | 391 kts | 227° |
| 2026-05-07 15:40 | 49.49728 | 10.79255 | 22623 ft | 386 kts | 228° |
| 2026-05-07 15:40 | 49.47868 | 10.76303 | 22182 ft | 383 kts | 228° |
| 2026-05-07 15:40 | 49.46026 | 10.73374 | 21762 ft | 379 kts | 228° |
| 2026-05-07 15:41 | 49.44196 | 10.70470 | 21300 ft | 377 kts | 228° |
| 2026-05-07 15:41 | 49.42377 | 10.67591 | 20898 ft | 374 kts | 228° |
| 2026-05-07 15:41 | 49.40564 | 10.64711 | 20510 ft | 376 kts | 228° |
| 2026-05-07 15:41 | 49.38757 | 10.61794 | 20119 ft | 378 kts | 229° |
| 2026-05-07 15:42 | 49.36949 | 10.58870 | 19725 ft | 377 kts | 229° |
| 2026-05-07 15:42 | 49.35150 | 10.55969 | 19325 ft | 373 kts | 229° |
| 2026-05-07 15:42 | 49.33350 | 10.53133 | 18939 ft | 370 kts | 227° |
| 2026-05-07 15:42 | 49.31528 | 10.50351 | 18557 ft | 368 kts | 227° |
| 2026-05-07 15:43 | 49.29714 | 10.47604 | 18150 ft | 366 kts | 227° |
| 2026-05-07 15:43 | 49.27914 | 10.44873 | 17730 ft | 364 kts | 227° |
| 2026-05-07 15:43 | 49.26726 | 10.43065 | 17449 ft | 362 kts | 227° |
| 2026-05-07 15:43 | 49.24354 | 10.39455 | 16936 ft | 358 kts | 227° |
| 2026-05-07 15:44 | 49.23186 | 10.37672 | 16685 ft | 357 kts | 227° |
| 2026-05-07 15:44 | 49.21449 | 10.34968 | 16286 ft | 355 kts | 227° |
| 2026-05-07 15:44 | 49.19728 | 10.32269 | 15906 ft | 354 kts | 227° |
| 2026-05-07 15:44 | 49.18014 | 10.29589 | 15520 ft | 352 kts | 227° |
| 2026-05-07 15:45 | 49.16316 | 10.26910 | 15143 ft | 350 kts | 231° |
| 2026-05-07 15:45 | 49.15092 | 10.23773 | 14754 ft | 346 kts | 251° |
| 2026-05-07 15:45 | 49.14601 | 10.20147 | 14040 ft | 353 kts | 269° |
| 2026-05-07 15:45 | 49.14764 | 10.16423 | 13547 ft | 351 kts | 276° |
| 2026-05-07 15:46 | 49.15413 | 10.09169 | 12787 ft | 339 kts | 277° |
| 2026-05-07 15:46 | 49.15713 | 10.05618 | 12437 ft | 335 kts | 277° |
| 2026-05-07 15:46 | 49.15991 | 10.02110 | 12082 ft | 332 kts | 276° |
| 2026-05-07 15:47 | 49.16243 | 9.98610 | 11741 ft | 329 kts | 272° |
| 2026-05-07 15:47 | 49.15921 | 9.95180 | 11414 ft | 328 kts | 251° |
| 2026-05-07 15:47 | 49.14813 | 9.92175 | 11219 ft | 321 kts | 233° |
| 2026-05-07 15:47 | 49.13177 | 9.89904 | 10946 ft | 319 kts | 216° |
| 2026-05-07 15:48 | 49.11308 | 9.88110 | 10629 ft | 315 kts | 213° |
| 2026-05-07 15:48 | 49.09484 | 9.86452 | 10278 ft | 305 kts | 213° |
| 2026-05-07 15:48 | 49.07687 | 9.84837 | 10079 ft | 291 kts | 213° |
| 2026-05-07 15:48 | 49.05954 | 9.83273 | 9789 ft | 285 kts | 213° |
| 2026-05-07 15:49 | 49.04279 | 9.81749 | 9467 ft | 283 kts | 213° |
| 2026-05-07 15:49 | 49.02600 | 9.80215 | 9179 ft | 281 kts | 213° |
| 2026-05-07 15:49 | 49.00926 | 9.78681 | 8882 ft | 280 kts | 213° |
| 2026-05-07 15:49 | 48.99264 | 9.77155 | 8567 ft | 279 kts | 213° |
| 2026-05-07 15:50 | 48.97609 | 9.75635 | 8276 ft | 277 kts | 214° |
| 2026-05-07 15:50 | 48.95960 | 9.74121 | 7972 ft | 276 kts | 213° |
| 2026-05-07 15:50 | 48.94319 | 9.72614 | 7657 ft | 275 kts | 213° |
| 2026-05-07 15:50 | 48.92687 | 9.71117 | 7379 ft | 273 kts | 213° |
| 2026-05-07 15:51 | 48.91061 | 9.69625 | 7099 ft | 272 kts | 213° |
| 2026-05-07 15:51 | 48.89441 | 9.68140 | 6800 ft | 272 kts | 213° |
| 2026-05-07 15:51 | 48.87829 | 9.66663 | 6506 ft | 271 kts | 213° |
| 2026-05-07 15:51 | 48.86223 | 9.65193 | 6320 ft | 265 kts | 213° |
| 2026-05-07 15:52 | 48.84664 | 9.63767 | 6174 ft | 259 kts | 213° |
| 2026-05-07 15:52 | 48.83146 | 9.62381 | 6041 ft | 249 kts | 213° |
| 2026-05-07 15:52 | 48.81703 | 9.61067 | 5935 ft | 236 kts | 213° |
| 2026-05-07 15:52 | 48.80333 | 9.59819 | 5817 ft | 224 kts | 214° |
| 2026-05-07 15:53 | 48.79033 | 9.58633 | 5726 ft | 214 kts | 214° |
| 2026-05-07 15:53 | 48.77742 | 9.57455 | 5489 ft | 218 kts | 214° |
| 2026-05-07 15:53 | 48.76466 | 9.56293 | 5254 ft | 216 kts | 214° |
| 2026-05-07 15:53 | 48.75303 | 9.54894 | 4993 ft | 208 kts | 238° |
| 2026-05-07 15:54 | 48.74744 | 9.52949 | 4792 ft | 198 kts | 257° |
| 2026-05-07 15:54 | 48.74381 | 9.50971 | 4562 ft | 192 kts | 256° |
| 2026-05-07 15:54 | 48.74027 | 9.49058 | 4380 ft | 187 kts | 257° |
| 2026-05-07 15:54 | 48.73706 | 9.47165 | 4291 ft | 185 kts | 258° |
| 2026-05-07 15:55 | 48.73367 | 9.45233 | 4021 ft | 190 kts | 257° |
| 2026-05-07 15:55 | 48.73008 | 9.43327 | 3752 ft | 188 kts | 257° |
| 2026-05-07 15:55 | 48.72647 | 9.41434 | 3513 ft | 184 kts | 257° |
| 2026-05-07 15:55 | 48.72299 | 9.39619 | 3276 ft | 175 kts | 257° |
| 2026-05-07 15:56 | 48.71970 | 9.37898 | 3049 ft | 166 kts | 257° |
| 2026-05-07 15:56 | 48.71663 | 9.36282 | 2813 ft | 158 kts | 258° |
| 2026-05-07 15:56 | 48.71364 | 9.34713 | 2626 ft | 154 kts | 257° |
| 2026-05-07 15:56 | 48.71068 | 9.33159 | 2415 ft | 152 kts | 257° |
| 2026-05-07 15:57 | 48.70776 | 9.31620 | 2184 ft | 152 kts | 257° |
| 2026-05-07 15:57 | 48.70461 | 9.30093 | 1977 ft | 152 kts | 257° |
| 2026-05-07 15:57 | 48.70170 | 9.28549 | 1711 ft | 153 kts | 258° |
| 2026-05-07 15:57 | 48.69891 | 9.27024 | 1512 ft | 151 kts | 257° |
| 2026-05-07 15:58 | 48.69611 | 9.25503 | 1325 ft | 149 kts | 258° |
| 2026-05-07 15:58 | 48.69326 | 9.24013 | 1200 ft | 142 kts | 258° |
| 2026-05-07 15:58 | 48.69141 | 9.23005 | 1223 ft | 64 kts | 253° |
| 2026-05-07 15:58 | 48.69037 | 9.22461 | 1230 ft | 50 kts | 254° |
| 2026-05-07 15:59 | 48.68949 | 9.21997 | 1245 ft | 37 kts | 254° |
| 2026-05-07 15:59 | 48.68892 | 9.21698 | 1247 ft | 25 kts | 253° |
| 2026-05-07 15:59 | 48.68846 | 9.21454 | 1259 ft | 23 kts | 254° |
| 2026-05-07 15:59 | 48.68819 | 9.21251 | 1257 ft | 14 kts | 265° |
| 2026-05-07 16:00 | 48.68820 | 9.21112 | 1266 ft | 13 kts | 277° |
| 2026-05-07 16:00 | 48.68835 | 9.20994 | 1264 ft | 10 kts | 281° |
| 2026-05-07 16:00 | 48.68840 | 9.20956 | 1260 ft | 0 kts | 282° |
| 2026-05-07 16:01 | 48.68843 | 9.20934 | 1266 ft | 6 kts | 282° |
| 2026-05-07 16:01 | 48.68857 | 9.20846 | 1266 ft | 9 kts | 284° |
| 2026-05-07 16:01 | 48.68879 | 9.20759 | 1272 ft | 9 kts | 309° |
| 2026-05-07 16:01 | 48.68920 | 9.20691 | 1273 ft | 9 kts | 313° |
| 2026-05-07 16:02 | 48.68964 | 9.20622 | 1270 ft | 9 kts | 315° |
| 2026-05-07 16:02 | 48.69000 | 9.20568 | 1273 ft | 8 kts | 315° |
| 2026-05-07 16:02 | 48.69030 | 9.20521 | 1275 ft | 0 kts | 314° |
| 2026-05-07 16:02 | 48.69034 | 9.20514 | 1275 ft | 2 kts | 313° |
| 2026-05-07 16:03 | 48.69044 | 9.20497 | 1276 ft | 3 kts | 313° |
| 2026-05-07 16:03 | 48.69059 | 9.20444 | 1278 ft | 7 kts | 272° |
| 2026-05-07 16:03 | 48.69047 | 9.20359 | 1284 ft | 9 kts | 255° |
| 2026-05-07 16:03 | 48.69028 | 9.20259 | 1287 ft | 11 kts | 254° |
| 2026-05-07 16:04 | 48.69009 | 9.20158 | 1287 ft | 9 kts | 254° |
| 2026-05-07 16:04 | 48.68993 | 9.20089 | 1289 ft | 7 kts | 234° |
| 2026-05-07 16:04 | 48.68946 | 9.20076 | 1287 ft | 8 kts | 168° |
| 2026-05-07 16:04 | 48.68912 | 9.20091 | 1288 ft | 0 kts | 164° |